createdAt,value
2018-10-03T00:01:20.669Z,98548.46
2018-10-03T00:03:49.003Z,98534.53
2018-10-03T00:06:17.289Z,98539.86
2018-10-03T00:08:45.576Z,98540.78
2018-10-03T00:11:13.860Z,98542.53
2018-10-03T00:13:42.190Z,98546.11
2018-10-03T00:16:10.471Z,98544.55
2018-10-03T00:18:38.754Z,98550.06
2018-10-03T00:21:07.042Z,98551.20
2018-10-03T00:23:35.328Z,98562.60
2018-10-03T00:26:03.615Z,98561.92
2018-10-03T00:28:31.895Z,98541.96
2018-10-03T00:31:00.195Z,98555.89
2018-10-03T00:33:28.478Z,98568.55
2018-10-03T00:35:56.763Z,98562.62
2018-10-03T00:38:25.055Z,98568.69
2018-10-03T00:40:53.339Z,98566.53
2018-10-03T00:43:21.631Z,98580.02
2018-10-03T00:45:49.926Z,98580.20
2018-10-03T00:48:18.223Z,98576.66
2018-10-03T00:50:46.508Z,98578.39
2018-10-03T00:53:15.755Z,98568.81
2018-10-03T00:55:44.047Z,98566.61
2018-10-03T00:58:12.335Z,98559.89
2018-10-03T01:00:40.635Z,98559.74
2018-10-03T01:03:08.923Z,98567.67
2018-10-03T01:05:37.219Z,98562.23
2018-10-03T01:08:05.521Z,98557.52
2018-10-03T01:10:33.815Z,98557.80
2018-10-03T01:13:02.112Z,98572.13
2018-10-03T01:15:30.395Z,98570.02
2018-10-03T01:17:58.691Z,98574.81
2018-10-03T01:20:26.991Z,98572.48
2018-10-03T01:22:55.276Z,98570.18
2018-10-03T01:25:23.551Z,98568.85
2018-10-03T01:27:51.843Z,98562.69
2018-10-03T01:30:20.128Z,98560.20
2018-10-03T01:32:48.410Z,98553.44
2018-10-03T01:35:16.692Z,98558.50
2018-10-03T01:37:44.967Z,98555.05
2018-10-03T01:40:13.260Z,98548.14
2018-10-03T01:42:41.540Z,98547.53
2018-10-03T01:45:09.838Z,98555.82
2018-10-03T01:47:38.127Z,98544.83
2018-10-03T01:50:06.424Z,98545.25
2018-10-03T01:52:34.704Z,98553.80
2018-10-03T01:55:02.980Z,98562.13
2018-10-03T01:57:31.271Z,98563.09
2018-10-03T02:00:00.252Z,98564.34
2018-10-03T02:02:28.539Z,98561.63
2018-10-03T02:04:56.819Z,98561.07
2018-10-03T02:07:25.119Z,98557.06
2018-10-03T02:09:53.399Z,98559.50
2018-10-03T02:12:21.679Z,98560.96
2018-10-03T02:14:49.988Z,98565.08
2018-10-03T02:17:18.248Z,98568.80
2018-10-03T02:19:46.538Z,98566.86
2018-10-03T02:22:14.815Z,98562.58
2018-10-03T02:24:43.094Z,98570.73
2018-10-03T02:27:11.386Z,98575.52
2018-10-03T02:29:39.694Z,98567.73
2018-10-03T02:32:07.979Z,98565.53
2018-10-03T02:34:36.267Z,98574.64
2018-10-03T02:37:04.563Z,98575.52
2018-10-03T02:39:32.854Z,98565.48
2018-10-03T02:42:01.135Z,98553.84
2018-10-03T02:44:29.418Z,98553.47
2018-10-03T02:46:57.703Z,98564.15
2018-10-03T02:49:26.001Z,98577.31
2018-10-03T02:51:54.291Z,98581.91
2018-10-03T02:54:22.579Z,98572.01
2018-10-03T02:56:50.859Z,98573.30
2018-10-03T02:59:19.147Z,98563.45
2018-10-03T03:01:47.447Z,98567.16
2018-10-03T03:04:15.735Z,98562.41
2018-10-03T03:06:44.031Z,98573.18
2018-10-03T03:09:12.323Z,98563.27
2018-10-03T03:11:40.611Z,98557.62
2018-10-03T03:14:08.895Z,98559.09
2018-10-03T03:16:37.192Z,98565.21
2018-10-03T03:19:05.487Z,98565.21
2018-10-03T03:21:33.781Z,98565.59
2018-10-03T03:24:02.070Z,98576.13
2018-10-03T03:26:30.368Z,98576.77
2018-10-03T03:28:58.659Z,98574.88
2018-10-03T03:31:26.947Z,98583.02
2018-10-03T03:33:55.244Z,98574.38
2018-10-03T03:36:23.532Z,98581.41
2018-10-03T03:38:51.831Z,98574.93
2018-10-03T03:41:20.124Z,98576.58
2018-10-03T03:43:48.419Z,98567.47
2018-10-03T03:46:16.707Z,98565.53
2018-10-03T03:48:45.006Z,98575.25
2018-10-03T03:51:13.310Z,98574.75
2018-10-03T03:53:41.594Z,98578.83
2018-10-03T03:56:09.930Z,98583.43
2018-10-03T03:58:38.192Z,98590.06
2018-10-03T04:01:06.488Z,98569.67
2018-10-03T04:03:34.784Z,98566.22
2018-10-03T04:06:03.079Z,98571.88
2018-10-03T04:08:31.379Z,98580.40
2018-10-03T04:10:59.679Z,98582.52
2018-10-03T04:13:27.979Z,98577.64
2018-10-03T04:15:56.274Z,98582.09
2018-10-03T04:18:24.568Z,98587.94
2018-10-03T04:20:52.857Z,98591.50
2018-10-03T04:23:21.163Z,98595.27
2018-10-03T04:25:49.483Z,98597.79
2018-10-03T04:28:17.775Z,98600.42
2018-10-03T04:30:46.060Z,98594.20
2018-10-03T04:33:14.359Z,98597.66
2018-10-03T04:35:42.691Z,98595.72
2018-10-03T04:38:10.946Z,98603.27
2018-10-03T04:40:39.233Z,98606.72
2018-10-03T04:43:07.522Z,98596.14
2018-10-03T04:45:35.807Z,98604.88
2018-10-03T04:48:04.103Z,98604.05
2018-10-03T04:50:32.387Z,98596.22
2018-10-03T04:53:01.611Z,98585.67
2018-10-03T04:55:29.895Z,98599.30
2018-10-03T04:57:58.189Z,98588.57
2018-10-03T05:00:26.463Z,98574.30
2018-10-03T05:02:54.769Z,98585.54
2018-10-03T05:05:23.047Z,98586.69
2018-10-03T05:07:51.351Z,98590.69
2018-10-03T05:10:19.647Z,98591.19
2018-10-03T05:12:47.947Z,98598.09
2018-10-03T05:15:16.236Z,98599.21
2018-10-03T05:17:44.539Z,98599.80
2018-10-03T05:20:12.832Z,98599.72
2018-10-03T05:22:41.122Z,98613.80
2018-10-03T05:25:09.404Z,98612.92
2018-10-03T05:27:37.702Z,98622.22
2018-10-03T05:30:05.995Z,98614.41
2018-10-03T05:32:34.288Z,98621.21
2018-10-03T05:35:02.566Z,98632.95
2018-10-03T05:37:30.867Z,98632.77
2018-10-03T05:39:59.157Z,98639.53
2018-10-03T05:42:27.447Z,98646.17
2018-10-03T05:44:55.726Z,98650.77
2018-10-03T05:47:24.019Z,98652.70
2018-10-03T05:49:52.295Z,98658.50
2018-10-03T05:52:20.582Z,98658.16
2018-10-03T05:54:48.938Z,98665.64
2018-10-03T05:57:17.162Z,98662.36
2018-10-03T05:59:45.442Z,98664.66
2018-10-03T06:02:13.737Z,98668.63
2018-10-03T06:04:42.017Z,98676.80
2018-10-03T06:07:10.303Z,98671.89
2018-10-03T06:09:38.587Z,98675.28
2018-10-03T06:12:06.936Z,98680.38
2018-10-03T06:14:35.271Z,98682.46
2018-10-03T06:17:03.550Z,98683.58
2018-10-03T06:19:31.843Z,98680.99
2018-10-03T06:22:00.141Z,98685.91
2018-10-03T06:24:28.419Z,98694.89
2018-10-03T06:26:56.719Z,98700.53
2018-10-03T06:29:24.999Z,98700.52
2018-10-03T06:31:53.301Z,98703.36
2018-10-03T06:34:21.575Z,98710.89
2018-10-03T06:36:49.866Z,98713.28
2018-10-03T06:39:18.159Z,98715.55
2018-10-03T06:41:46.455Z,98720.14
2018-10-03T06:44:14.752Z,98723.27
2018-10-03T06:46:43.032Z,98732.27
2018-10-03T06:49:11.334Z,98728.30
2018-10-03T06:51:39.616Z,98732.89
2018-10-03T06:54:07.900Z,98743.50
2018-10-03T06:56:36.206Z,98740.91
2018-10-03T06:59:04.482Z,98744.56
2018-10-03T07:01:32.759Z,98742.95
2018-10-03T07:04:01.055Z,98745.81
2018-10-03T07:06:29.359Z,98756.17
2018-10-03T07:08:57.659Z,98760.95
2018-10-03T07:11:25.943Z,98761.95
2018-10-03T07:13:54.235Z,98762.33
2018-10-03T07:16:22.517Z,98763.84
2018-10-03T07:18:50.795Z,98765.98
2018-10-03T07:21:19.083Z,98767.55
2018-10-03T07:23:47.370Z,98762.56
2018-10-03T07:26:15.727Z,98777.31
2018-10-03T07:28:43.954Z,98777.30
2018-10-03T07:31:12.239Z,98784.16
2018-10-03T07:33:40.520Z,98785.89
2018-10-03T07:36:08.815Z,98796.32
2018-10-03T07:38:37.099Z,98797.52
2018-10-03T07:41:05.375Z,98800.39
2018-10-03T07:43:33.669Z,98796.92
2018-10-03T07:46:01.947Z,98791.16
2018-10-03T07:48:30.251Z,98793.94
2018-10-03T07:50:58.538Z,98794.91
2018-10-03T07:53:26.884Z,98802.52
2018-10-03T07:55:55.127Z,98803.03
2018-10-03T07:58:23.411Z,98796.59
2018-10-03T08:00:51.711Z,98792.08
2018-10-03T08:03:19.999Z,98789.97
2018-10-03T08:05:48.295Z,98783.14
2018-10-03T08:08:16.575Z,98785.41
2018-10-03T08:10:44.857Z,98779.07
2018-10-03T08:13:13.147Z,98781.87
2018-10-03T08:15:41.527Z,98777.23
2018-10-03T08:18:09.778Z,98780.13
2018-10-03T08:20:38.087Z,98778.30
2018-10-03T08:23:06.362Z,98781.14
2018-10-03T08:25:34.643Z,98784.97
2018-10-03T08:28:02.939Z,98790.68
2018-10-03T08:30:31.223Z,98792.70
2018-10-03T08:32:59.620Z,98801.69
2018-10-03T08:35:27.806Z,98810.73
2018-10-03T08:37:56.089Z,98811.93
2018-10-03T08:40:24.367Z,98805.98
2018-10-03T08:42:52.659Z,98814.00
2018-10-03T08:45:20.968Z,98817.28
2018-10-03T08:47:49.222Z,98822.93
2018-10-03T08:50:17.514Z,98825.92
2018-10-03T08:52:45.807Z,98821.29
2018-10-03T08:55:14.087Z,98820.30
2018-10-03T08:57:42.376Z,98830.77
2018-10-03T09:00:10.667Z,98825.23
2018-10-03T09:02:38.963Z,98824.28
2018-10-03T09:05:07.247Z,98816.12
2018-10-03T09:07:36.386Z,98812.95
2018-10-03T09:10:04.679Z,98809.64
2018-10-03T09:12:32.975Z,98809.86
2018-10-03T09:15:01.256Z,98806.77
2018-10-03T09:17:29.551Z,98813.88
2018-10-03T09:19:57.839Z,98810.39
2018-10-03T09:22:26.127Z,98816.43
2018-10-03T09:24:54.406Z,98819.20
2018-10-03T09:27:22.703Z,98822.68
2018-10-03T09:29:50.991Z,98821.23
2018-10-03T09:32:19.279Z,98814.61
2018-10-03T09:34:47.569Z,98826.84
2018-10-03T09:37:15.858Z,98815.71
2018-10-03T09:39:44.155Z,98819.16
2018-10-03T09:42:12.448Z,98825.38
2018-10-03T09:44:40.822Z,98812.86
2018-10-03T09:47:09.033Z,98819.16
2018-10-03T09:49:37.319Z,98818.05
2018-10-03T09:52:05.611Z,98812.58
2018-10-03T09:54:33.904Z,98817.70
2018-10-03T09:57:02.204Z,98826.36
2018-10-03T09:59:30.486Z,98825.64
2018-10-03T10:01:58.771Z,98827.56
2018-10-03T10:04:27.063Z,98819.13
2018-10-03T10:06:55.359Z,98818.19
2018-10-03T10:09:23.643Z,98819.47
2018-10-03T10:11:51.941Z,98816.20
2018-10-03T10:14:20.223Z,98825.91
2018-10-03T10:16:48.514Z,98822.66
2018-10-03T10:19:16.799Z,98823.73
2018-10-03T10:21:45.095Z,98819.45
2018-10-03T10:24:13.384Z,98831.12
2018-10-03T10:26:41.671Z,98832.45
2018-10-03T10:29:09.950Z,98824.20
2018-10-03T10:31:38.247Z,98831.36
2018-10-03T10:34:06.520Z,98837.73
2018-10-03T10:36:34.819Z,98841.47
2018-10-03T10:39:03.095Z,98839.06
2018-10-03T10:41:31.516Z,98840.02
2018-10-03T10:43:59.683Z,98839.44
2018-10-03T10:46:27.983Z,98840.74
2018-10-03T10:48:56.273Z,98836.23
2018-10-03T10:51:24.568Z,98841.73
2018-10-03T10:53:52.839Z,98841.30
2018-10-03T10:56:21.135Z,98844.25
2018-10-03T10:58:49.411Z,98844.27
2018-10-03T11:01:17.735Z,98843.19
2018-10-03T11:03:46.030Z,98845.91
2018-10-03T11:06:14.412Z,98846.14
2018-10-03T11:08:42.683Z,98847.20
2018-10-03T11:11:10.980Z,98844.34
2018-10-03T11:13:39.259Z,98840.68
2018-10-03T11:16:07.547Z,98840.95
2018-10-03T11:18:35.827Z,98845.39
2018-10-03T11:21:04.123Z,98839.89
2018-10-03T11:23:32.441Z,98847.02
2018-10-03T11:26:00.715Z,98846.24
2018-10-03T11:28:28.998Z,98837.66
2018-10-03T11:30:57.291Z,98845.47
2018-10-03T11:33:25.579Z,98837.82
2018-10-03T11:35:53.876Z,98832.22
2018-10-03T11:38:22.324Z,98833.52
2018-10-03T11:40:50.467Z,98839.64
2018-10-03T11:43:18.754Z,98842.44
2018-10-03T11:45:47.047Z,98850.31
2018-10-03T11:48:15.329Z,98835.22
2018-10-03T11:50:43.669Z,98845.83
2018-10-03T11:53:11.887Z,98838.01
2018-10-03T11:55:40.179Z,98846.17
2018-10-03T11:58:08.464Z,98849.50
2018-10-03T12:00:36.739Z,98838.09
2018-10-03T12:03:05.104Z,98833.00
2018-10-03T12:05:33.315Z,98843.21
2018-10-03T12:08:01.591Z,98840.44
2018-10-03T12:10:29.883Z,98850.09
2018-10-03T12:12:58.163Z,98841.61
2018-10-03T12:15:26.462Z,98837.09
2018-10-03T12:17:54.743Z,98846.72
2018-10-03T12:20:23.043Z,98836.27
2018-10-03T12:22:51.318Z,98843.84
2018-10-03T12:25:19.650Z,98844.41
2018-10-03T12:27:47.942Z,98839.02
2018-10-03T12:30:17.010Z,98843.51
2018-10-03T12:32:45.312Z,98853.05
2018-10-03T12:35:13.595Z,98852.62
2018-10-03T12:37:41.880Z,98840.78
2018-10-03T12:40:10.175Z,98845.30
2018-10-03T12:42:38.475Z,98850.22
2018-10-03T12:45:06.774Z,98855.41
2018-10-03T12:47:35.047Z,98850.67
2018-10-03T12:50:03.336Z,98849.77
2018-10-03T12:52:31.622Z,98853.97
2018-10-03T12:54:59.915Z,98853.48
2018-10-03T12:57:28.210Z,98853.97
2018-10-03T12:59:56.507Z,98855.55
2018-10-03T13:02:24.802Z,98854.08
2018-10-03T13:04:53.108Z,98855.13
2018-10-03T13:07:21.386Z,98853.34
2018-10-03T13:09:49.691Z,98844.55
2018-10-03T13:12:17.991Z,98842.89
2018-10-03T13:14:46.279Z,98845.25
2018-10-03T13:17:14.578Z,98846.45
2018-10-03T13:19:43.003Z,98846.84
2018-10-03T13:22:11.283Z,98847.69
2018-10-03T13:24:39.591Z,98846.27
2018-10-03T13:27:07.885Z,98849.14
2018-10-03T13:29:36.164Z,98839.44
2018-10-03T13:32:04.463Z,98847.83
2018-10-03T13:34:33.063Z,98835.61
2018-10-03T13:37:01.367Z,98846.22
2018-10-03T13:39:29.665Z,98846.92
2018-10-03T13:41:57.959Z,98848.80
2018-10-03T13:44:26.255Z,98847.38
2018-10-03T13:46:54.531Z,98848.73
2018-10-03T13:49:22.815Z,98838.69
2018-10-03T13:51:51.093Z,98839.34
2018-10-03T13:54:19.375Z,98844.13
2018-10-03T13:56:47.652Z,98830.34
2018-10-03T13:59:15.942Z,98840.13
2018-10-03T14:01:44.527Z,98840.78
2018-10-03T14:04:12.834Z,98835.25
2018-10-03T14:06:41.131Z,98846.12
2018-10-03T14:09:09.402Z,98838.56
2018-10-03T14:11:37.697Z,98845.30
2018-10-03T14:14:05.979Z,98835.60
2018-10-03T14:16:34.284Z,98843.13
2018-10-03T14:19:02.571Z,98841.95
2018-10-03T14:21:30.854Z,98839.73
2018-10-03T14:23:59.167Z,98838.38
2018-10-03T14:26:28.432Z,98850.48
2018-10-03T14:28:56.741Z,98853.56
2018-10-03T14:31:25.038Z,98850.25
2018-10-03T14:33:53.335Z,98838.30
2018-10-03T14:36:21.627Z,98842.86
2018-10-03T14:38:49.923Z,98840.20
2018-10-03T14:41:18.223Z,98843.48
2018-10-03T14:43:46.524Z,98829.67
2018-10-03T14:46:14.832Z,98844.53
2018-10-03T14:48:43.123Z,98843.02
2018-10-03T14:51:11.431Z,98837.58
2018-10-03T14:53:39.723Z,98848.75
2018-10-03T14:56:08.018Z,98843.28
2018-10-03T14:58:36.433Z,98847.59
2018-10-03T15:01:04.604Z,98828.11
2018-10-03T15:03:32.891Z,98842.86
2018-10-03T15:06:01.184Z,98823.41
2018-10-03T15:08:29.477Z,98838.55
2018-10-03T15:10:57.763Z,98842.43
2018-10-03T15:13:26.064Z,98843.25
2018-10-03T15:15:54.362Z,98838.12
2018-10-03T15:18:22.720Z,98842.50
2018-10-03T15:20:50.939Z,98840.10
2018-10-03T15:23:19.231Z,98840.86
2018-10-03T15:25:47.527Z,98843.14
2018-10-03T15:28:15.832Z,98844.62
2018-10-03T15:30:44.131Z,98842.45
2018-10-03T15:33:12.408Z,98841.61
2018-10-03T15:35:40.699Z,98845.78
2018-10-03T15:38:08.992Z,98855.13
2018-10-03T15:40:37.283Z,98847.07
2018-10-03T15:43:05.559Z,98850.22
2018-10-03T15:45:33.842Z,98855.41
2018-10-03T15:48:02.126Z,98856.69
2018-10-03T15:50:30.403Z,98868.96
2018-10-03T15:52:58.691Z,98868.31
2018-10-03T15:55:26.983Z,98868.09
2018-10-03T15:57:55.262Z,98871.56
2018-10-03T16:00:23.558Z,98872.97
2018-10-03T16:02:51.851Z,98871.84
2018-10-03T16:05:20.143Z,98869.29
2018-10-03T16:07:48.427Z,98872.34
2018-10-03T16:10:16.719Z,98878.91
2018-10-03T16:12:44.999Z,98867.38
2018-10-03T16:15:13.284Z,98878.42
2018-10-03T16:17:41.585Z,98881.89
2018-10-03T16:20:09.864Z,98879.86
2018-10-03T16:22:38.152Z,98885.93
2018-10-03T16:25:06.444Z,98882.97
2018-10-03T16:27:34.975Z,98886.91
2018-10-03T16:30:03.223Z,98898.02
2018-10-03T16:32:31.625Z,98899.50
2018-10-03T16:34:59.890Z,98902.12
2018-10-03T16:37:28.181Z,98909.64
2018-10-03T16:39:56.466Z,98908.58
2018-10-03T16:42:24.767Z,98905.89
2018-10-03T16:44:53.050Z,98908.98
2018-10-03T16:47:21.339Z,98907.93
2018-10-03T16:49:49.651Z,98911.34
2018-10-03T16:52:17.930Z,98911.35
2018-10-03T16:54:46.225Z,98917.08
2018-10-03T16:57:14.527Z,98921.73
2018-10-03T16:59:42.831Z,98923.31
2018-10-03T17:02:11.123Z,98924.31
2018-10-03T17:04:39.431Z,98924.64
2018-10-03T17:07:07.724Z,98923.73
2018-10-03T17:09:36.039Z,98923.84
2018-10-03T17:12:04.339Z,98931.38
2018-10-03T17:14:32.646Z,98933.82
2018-10-03T17:17:00.943Z,98933.48
2018-10-03T17:19:29.247Z,98929.14
2018-10-03T17:21:57.547Z,98938.02
2018-10-03T17:24:25.833Z,98940.23
2018-10-03T17:26:54.142Z,98940.46
2018-10-03T17:29:22.439Z,98942.38
2018-10-03T17:31:50.745Z,98943.97
2018-10-03T17:34:19.054Z,98951.93
2018-10-03T17:36:47.351Z,98956.70
2018-10-03T17:39:15.643Z,98960.35
2018-10-03T17:41:43.955Z,98959.15
2018-10-03T17:44:12.251Z,98950.66
2018-10-03T17:46:40.543Z,98955.96
2018-10-03T17:49:08.844Z,98952.04
2018-10-03T17:51:37.138Z,98953.19
2018-10-03T17:54:05.451Z,98949.04
2018-10-03T17:56:33.745Z,98957.34
2018-10-03T17:59:02.091Z,98952.04
2018-10-03T18:01:30.347Z,98955.84
2018-10-03T18:03:58.636Z,98957.80
2018-10-03T18:06:26.932Z,98953.08
2018-10-03T18:08:55.240Z,98962.54
2018-10-03T18:11:23.536Z,98963.77
2018-10-03T18:13:51.885Z,98960.06
2018-10-03T18:16:20.173Z,98963.33
2018-10-03T18:18:48.600Z,98959.77
2018-10-03T18:21:16.938Z,98961.05
2018-10-03T18:23:45.415Z,98951.80
2018-10-03T18:26:13.976Z,98970.44
2018-10-03T18:28:42.330Z,98979.14
2018-10-03T18:31:10.740Z,98976.61
2018-10-03T18:33:39.310Z,98971.45
2018-10-03T18:36:08.124Z,98975.19
2018-10-03T18:38:37.118Z,98978.33
2018-10-03T18:41:06.077Z,98978.35
2018-10-03T18:43:35.435Z,98977.47
2018-10-03T18:46:04.766Z,98979.09
2018-10-03T18:48:34.088Z,98987.07
2018-10-03T18:51:03.441Z,98986.19
2018-10-03T18:53:32.811Z,98987.75
2018-10-03T18:56:02.105Z,98988.43
2018-10-03T18:58:31.435Z,98985.47
2018-10-03T19:01:00.848Z,98992.05
2018-10-03T19:03:30.207Z,98994.96
2018-10-03T19:05:59.681Z,98996.16
2018-10-03T19:08:28.911Z,98999.11
2018-10-03T19:10:58.369Z,99000.18
2018-10-03T19:13:27.839Z,98990.50
2018-10-03T19:15:57.121Z,98998.88
2018-10-03T19:18:26.388Z,98997.69
2018-10-03T19:20:55.845Z,99000.39
2018-10-03T19:23:25.259Z,99007.22
2018-10-03T19:25:54.929Z,99000.53
2018-10-03T19:28:24.271Z,99001.17
2018-10-03T19:30:53.812Z,99004.94
2018-10-03T19:33:24.241Z,99004.66
2018-10-03T19:35:53.731Z,99007.24
2018-10-03T19:38:23.121Z,99008.75
2018-10-03T19:40:52.659Z,99016.27
2018-10-03T19:43:22.034Z,99009.59
2018-10-03T19:45:51.415Z,99015.96
2018-10-03T19:48:20.861Z,99016.05
2018-10-03T19:50:50.281Z,99026.27
2018-10-03T19:53:20.877Z,99028.01
2018-10-03T19:55:50.307Z,99022.47
2018-10-03T19:58:19.685Z,99022.06
2018-10-03T20:00:48.947Z,99023.87
2018-10-03T20:03:18.327Z,99020.03
2018-10-03T20:05:47.625Z,99019.59
2018-10-03T20:08:17.060Z,99022.91
2018-10-03T20:10:46.616Z,99021.39
2018-10-03T20:13:15.979Z,99024.81
2018-10-03T20:15:45.421Z,99019.91
2018-10-03T20:18:14.812Z,99022.91
2018-10-03T20:20:43.892Z,99020.19
2018-10-03T20:23:12.963Z,99023.77
2018-10-03T20:25:42.087Z,99025.95
2018-10-03T20:28:10.963Z,99036.34
2018-10-03T20:30:39.819Z,99036.06
2018-10-03T20:33:08.403Z,99038.89
2018-10-03T20:35:37.003Z,99038.41
2018-10-03T20:38:05.525Z,99041.16
2018-10-03T20:40:33.828Z,99035.58
2018-10-03T20:43:02.187Z,99035.62
2018-10-03T20:45:30.475Z,99035.62
2018-10-03T20:47:58.775Z,99036.72
2018-10-03T20:50:27.083Z,99045.02
2018-10-03T20:52:55.406Z,99048.66
2018-10-03T20:55:23.711Z,99047.32
2018-10-03T20:57:52.008Z,99043.87
2018-10-03T21:00:20.339Z,99045.80
2018-10-03T21:02:48.622Z,99049.23
2018-10-03T21:05:16.915Z,99054.36
2018-10-03T21:07:45.210Z,99055.31
2018-10-03T21:10:13.566Z,99056.42
2018-10-03T21:12:41.866Z,99061.63
2018-10-03T21:15:10.163Z,99056.36
2018-10-03T21:17:38.467Z,99059.80
2018-10-03T21:20:06.762Z,99057.58
2018-10-03T21:22:35.063Z,99059.88
2018-10-03T21:25:03.412Z,99062.03
2018-10-03T21:27:31.668Z,99064.88
2018-10-03T21:29:59.975Z,99070.86
2018-10-03T21:32:28.294Z,99067.45
2018-10-03T21:34:56.560Z,99071.56
2018-10-03T21:37:24.871Z,99072.05
2018-10-03T21:39:53.173Z,99071.28
2018-10-03T21:42:21.475Z,99072.53
2018-10-03T21:44:49.790Z,99072.34
2018-10-03T21:47:18.083Z,99069.72
2018-10-03T21:49:46.391Z,99069.72
2018-10-03T21:52:14.686Z,99066.38
2018-10-03T21:54:42.980Z,99066.19
2018-10-03T21:57:11.263Z,99066.73
2018-10-03T21:59:39.568Z,99062.16
2018-10-03T22:02:07.859Z,99063.84
2018-10-03T22:04:36.172Z,99066.62
2018-10-03T22:07:04.470Z,99069.52
2018-10-03T22:09:32.755Z,99063.64
2018-10-03T22:12:01.062Z,99059.14
2018-10-03T22:14:29.359Z,99059.27
2018-10-03T22:16:57.651Z,99056.32
2018-10-03T22:19:25.942Z,99061.02
2018-10-03T22:21:54.244Z,99054.59
2018-10-03T22:24:22.547Z,99059.31
2018-10-03T22:26:50.843Z,99052.70
2018-10-03T22:29:19.215Z,99058.11
2018-10-03T22:31:47.520Z,99057.91
2018-10-03T22:34:15.828Z,99058.88
2018-10-03T22:36:44.128Z,99058.77
2018-10-03T22:39:12.439Z,99063.94
2018-10-03T22:41:40.731Z,99058.09
2018-10-03T22:44:09.027Z,99054.22
2018-10-03T22:46:37.346Z,99058.63
2018-10-03T22:49:05.639Z,99058.57
2018-10-03T22:51:33.944Z,99059.16
2018-10-03T22:54:02.251Z,99059.42
2018-10-03T22:56:30.552Z,99057.80
2018-10-03T22:58:59.026Z,99060.94
2018-10-03T23:01:27.375Z,99051.86
2018-10-03T23:03:55.673Z,99053.77
2018-10-03T23:06:23.975Z,99053.46
2018-10-03T23:08:52.267Z,99057.44
2018-10-03T23:11:20.551Z,99057.77
2018-10-03T23:13:48.860Z,99055.52
2018-10-03T23:16:17.147Z,99059.22
2018-10-03T23:18:45.463Z,99059.22
2018-10-03T23:21:13.754Z,99055.33
2018-10-03T23:23:42.059Z,99063.41
2018-10-03T23:26:10.356Z,99062.37
2018-10-03T23:28:38.638Z,99067.33
2018-10-03T23:31:06.935Z,99065.72
2018-10-03T23:33:35.224Z,99069.54
2018-10-03T23:36:03.524Z,99068.56
2018-10-03T23:38:31.829Z,99069.42
2018-10-03T23:41:00.131Z,99073.34
2018-10-03T23:43:28.431Z,99069.72
2018-10-03T23:45:56.719Z,99070.84
2018-10-03T23:48:25.007Z,99076.69
2018-10-03T23:50:53.315Z,99079.13
2018-10-03T23:53:21.603Z,99076.69
2018-10-03T23:55:49.906Z,99082.81
2018-10-03T23:58:18.185Z,99080.95
